Time;durP1;ratioP1;P1;durP2;ratioP2;P2;SDS_P1;SDS_P2;PMS_P1;PMS_P2;Temp;Humidity;BMP_temperature;BMP_pressure;BME280_temperature;BME280_humidity;BME280_pressure;Samples;Min_cycle;Max_cycle;Signal;HPM_P1;HPM_P2
2023/01/14 00:00:15;;;;;;;25.35;3.80;;;;;;;15.07;100.00;101239.66;5056322;28;20089;-50
2023/01/14 00:02:40;;;;;;;18.77;3.83;;;;;;;15.84;100.00;101228.72;5054671;28;20045;-49
2023/01/14 00:05:06;;;;;;;19.17;3.27;;;;;;;15.24;100.00;101237.28;5058538;28;20349;-50
2023/01/14 00:07:31;;;;;;;23.45;2.83;;;;;;;15.55;100.00;101232.91;5056613;28;20050;-55
2023/01/14 00:09:57;;;;;;;14.47;2.83;;;;;;;15.00;100.00;101237.84;5059449;28;20034;-52
2023/01/14 00:12:22;;;;;;;14.67;3.40;;;;;;;15.47;100.00;101260.97;5056529;28;20065;-55
2023/01/14 00:14:48;;;;;;;24.43;3.57;;;;;;;15.36;100.00;101246.34;5057377;28;20029;-52
2023/01/14 00:17:13;;;;;;;22.87;4.30;;;;;;;15.26;100.00;101257.59;5053964;28;20420;-54
2023/01/14 00:19:38;;;;;;;22.23;3.40;;;;;;;14.91;100.00;101257.97;5057516;28;20038;-52
2023/01/14 00:22:04;;;;;;;25.73;4.00;;;;;;;15.67;100.00;101243.81;5054212;28;20037;-51
2023/01/14 00:24:30;;;;;;;28.58;5.10;;;;;;;15.74;100.00;101252.69;5055674;28;20097;-56
2023/01/14 00:26:57;;;;;;;26.27;4.80;;;;;;;15.35;100.00;101268.94;5058984;28;20029;-51
2023/01/14 00:29:34;;;;;;;32.37;4.10;;;;;;;15.67;100.00;101284.25;5056407;28;20029;-51
2023/01/14 00:32:03;;;;;;;17.42;2.90;;;;;;;15.52;100.00;101268.38;5055778;28;20273;-52
2023/01/14 00:34:30;;;;;;;21.90;4.70;;;;;;;15.36;100.00;101256.28;5055345;28;20032;-52
2023/01/14 00:36:57;;;;;;;23.10;4.10;;;;;;;15.63;100.00;101257.72;5059028;28;20266;-52
2023/01/14 00:39:23;;;;;;;16.60;3.17;;;;;;;15.63;100.00;101252.34;5055784;28;20279;-50
2023/01/14 00:41:49;;;;;;;26.55;3.65;;;;;;;15.82;100.00;101263.19;5053947;28;20334;-51
2023/01/14 00:44:15;;;;;;;25.20;3.50;;;;;;;15.79;100.00;101263.63;5055031;28;20068;-55
2023/01/14 00:46:41;;;;;;;11.90;3.15;;;;;;;15.46;100.00;101267.41;5057885;28;20048;-52
2023/01/14 00:49:17;;;;;;;13.57;3.00;;;;;;;15.47;100.00;101263.69;5059512;28;20033;-54
2023/01/14 00:51:45;;;;;;;19.17;3.20;;;;;;;15.33;100.00;101252.13;5060182;28;20037;-51
2023/01/14 00:54:10;;;;;;;24.25;3.63;;;;;;;15.11;100.00;101255.19;5058698;28;20270;-54
2023/01/14 00:56:37;;;;;;;23.83;3.20;;;;;;;15.48;100.00;101254.53;5062052;28;20025;-50
2023/01/14 00:59:03;;;;;;;32.85;4.38;;;;;;;15.37;100.00;101253.38;5060447;28;20294;-52
2023/01/14 01:01:29;;;;;;;31.63;3.97;;;;;;;15.29;100.00;101264.38;5057117;28;20053;-48
2023/01/14 01:03:56;;;;;;;23.83;3.67;;;;;;;14.86;100.00;101268.56;5057541;28;20044;-52
2023/01/14 01:06:24;;;;;;;15.73;3.10;;;;;;;15.06;100.00;101271.13;5055723;28;20091;-48
2023/01/14 01:08:55;;;;;;;22.03;4.37;;;;;;;14.93;100.00;101277.41;5062862;28;20043;-54
2023/01/14 01:11:21;;;;;;;15.07;3.65;;;;;;;15.22;100.00;101266.31;5059460;28;20270;-51
2023/01/14 01:13:47;;;;;;;26.23;3.87;;;;;;;14.71;100.00;101272.31;5055053;28;20108;-51
2023/01/14 01:16:15;;;;;;;33.57;4.83;;;;;;;14.57;100.00;101273.38;5055810;28;20029;-49
2023/01/14 01:18:42;;;;;;;27.23;4.40;;;;;;;14.47;100.00;101271.94;5054796;28;20286;-52
2023/01/14 01:21:16;;;;;;;24.02;4.25;;;;;;;14.82;100.00;101278.09;5058326;28;20320;-55
2023/01/14 01:23:44;;;;;;;26.48;3.05;;;;;;;14.64;100.00;101268.81;5052784;28;20033;-53
2023/01/14 01:26:21;;;;;;;30.73;3.50;;;;;;;15.23;100.00;101263.41;5057378;28;20092;-56
2023/01/14 01:28:50;;;;;;;18.73;3.75;;;;;;;15.41;100.00;101256.44;5056108;28;20037;-54
2023/01/14 01:31:17;;;;;;;36.15;4.30;;;;;;;15.00;100.00;101256.69;5059810;28;20041;-57
2023/01/14 01:33:43;;;;;;;16.98;3.08;;;;;;;14.85;100.00;101269.59;5056572;28;20105;-51
2023/01/14 01:36:13;;;;;;;21.95;3.67;;;;;;;14.57;100.00;101266.13;5057127;28;20044;-55
2023/01/14 01:38:41;;;;;;;23.65;3.33;;;;;;;14.69;100.00;101268.19;5055736;28;20025;-55
2023/01/14 01:41:06;;;;;;;17.52;3.50;;;;;;;14.79;100.00;101267.75;5056809;28;20075;-55
2023/01/14 01:43:33;;;;;;;20.17;3.28;;;;;;;14.80;100.00;101262.16;5061547;28;20037;-53
2023/01/14 01:45:59;;;;;;;22.35;3.38;;;;;;;15.14;100.00;101256.59;5061869;28;20044;-56
2023/01/14 01:48:30;;;;;;;34.45;4.78;;;;;;;14.91;100.00;101255.25;5062292;28;20037;-53
2023/01/14 01:51:04;;;;;;;21.35;3.58;;;;;;;14.74;100.00;101255.75;5060128;28;20082;-54
2023/01/14 01:53:33;;;;;;;31.33;4.97;;;;;;;14.64;100.00;101258.03;5059336;28;20056;-52
2023/01/14 01:56:00;;;;;;;32.97;3.38;;;;;;;14.30;100.00;101268.03;5057731;28;20306;-54
2023/01/14 01:58:27;;;;;;;19.63;4.20;;;;;;;14.48;100.00;101262.84;5060282;28;20032;-54
2023/01/14 02:00:53;;;;;;;33.50;4.65;;;;;;;14.87;100.00;101267.50;5053511;28;20029;-54
2023/01/14 02:03:32;;;;;;;;;;;;;;;14.43;100.00;101272.59;5043675;28;20041;-54
2023/01/14 02:05:58;;;;;;;27.67;3.47;;;;;;;14.54;100.00;101260.38;5055029;28;20078;-55
2023/01/14 02:08:24;;;;;;;24.13;3.50;;;;;;;14.32;100.00;101271.38;5057208;28;20030;-52
2023/01/14 02:11:17;;;;;;;43.80;4.70;;;;;;;14.02;100.00;101264.59;5059709;28;20048;-52
2023/01/14 02:14:05;;;;;;;29.67;5.60;;;;;;;13.71;100.00;101262.50;5059468;28;20037;-54
2023/01/14 02:16:39;;;;;;;;;;;;;;;14.04;100.00;101242.84;5061687;28;20032;-53
2023/01/14 02:19:23;;;;;;;28.35;6.80;;;;;;;14.24;100.00;101234.75;5058969;28;19917;-53
2023/01/14 02:22:10;;;;;;;19.65;4.78;;;;;;;14.21;100.00;101229.81;5057591;28;20033;-51
2023/01/14 02:24:58;;;;;;;24.25;5.32;;;;;;;14.29;100.00;101220.66;5056891;28;20046;-51
2023/01/14 02:27:40;;;;;;;25.50;5.60;;;;;;;14.13;100.00;101228.16;5059238;28;20033;-54
2023/01/14 02:30:14;;;;;;;29.42;5.82;;;;;;;13.99;100.00;101215.75;5055258;28;20029;-54
2023/01/14 02:32:56;;;;;;;33.40;5.28;;;;;;;14.32;100.00;101204.13;5056882;28;20107;-54
2023/01/14 02:35:28;;;;;;;27.48;5.25;;;;;;;14.10;100.00;101200.84;5059418;28;20113;-54
2023/01/14 02:38:13;;;;;;;29.63;5.20;;;;;;;13.90;100.00;101197.16;5056367;28;20029;-54
2023/01/14 02:40:46;;;;;;;33.97;5.65;;;;;;;14.28;100.00;101192.09;5061751;28;20442;-50
2023/01/14 02:46:30;;;;;;;34.05;5.80;;;;;;;13.74;100.00;101176.09;5059356;28;20105;-51
2023/01/14 02:49:02;;;;;;;48.75;8.90;;;;;;;13.94;100.00;101169.84;5057367;28;20038;-52
2023/01/14 02:51:31;;;;;;;48.75;10.63;;;;;;;13.69;100.00;101173.19;5059586;28;20030;-54
2023/01/14 02:53:57;;;;;;;37.15;9.80;;;;;;;14.06;100.00;101176.22;5062697;28;20037;-54
2023/01/14 02:56:26;;;;;;;34.55;5.70;;;;;;;13.65;100.00;101163.91;5057242;28;20036;-53
2023/01/14 02:59:08;;;;;;;35.03;5.47;;;;;;;13.89;100.00;101171.31;5060192;28;20029;-51
2023/01/14 03:01:58;;;;;;;31.55;5.15;;;;;;;13.51;100.00;101176.53;5060888;28;20036;-55
2023/01/14 03:04:32;;;;;;;57.50;5.75;;;;;;;14.07;100.00;101169.84;5062862;28;20033;-54
2023/01/14 03:07:53;;;;;;;31.65;5.05;;;;;;;13.78;100.00;101169.25;5054564;28;20041;-51
2023/01/14 03:10:25;;;;;;;32.40;6.20;;;;;;;13.95;100.00;101176.88;5035587;28;20025;-53
2023/01/14 03:13:02;;;;;;;31.05;6.68;;;;;;;13.34;100.00;101177.69;5034543;28;20037;-51
2023/01/14 03:16:00;;;;;;;31.20;7.20;;;;;;;13.89;100.00;101154.34;5045719;28;20104;-48
2023/01/14 03:18:33;;;;;;;43.70;7.03;;;;;;;13.70;100.00;101148.78;5063171;28;20036;-50
2023/01/14 03:21:09;;;;;;;29.23;6.45;;;;;;;13.28;100.00;101151.66;5063537;28;20037;-49
2023/01/14 03:23:39;;;;;;;44.08;6.78;;;;;;;13.70;100.00;101135.34;5063781;28;20021;-48
2023/01/14 03:26:08;;;;;;;43.55;6.65;;;;;;;13.38;100.00;101142.38;5060381;28;20101;-52
2023/01/14 03:28:38;;;;;;;32.25;7.18;;;;;;;13.66;100.00;101122.56;5059103;28;20029;-51
2023/01/14 03:31:10;;;;;;;44.10;6.90;;;;;;;13.71;100.00;101128.13;5062622;28;20482;-49
2023/01/14 03:34:05;;;;;;;52.10;8.07;;;;;;;13.90;100.00;101124.56;5059805;28;20045;-52
2023/01/14 03:36:35;;;;;;;46.13;10.05;;;;;;;14.08;100.00;101128.47;5062303;28;20038;-54
2023/01/14 03:39:04;;;;;;;49.38;9.10;;;;;;;14.29;100.00;101113.91;5059013;28;20047;-51
2023/01/14 03:44:37;;;;;;;37.85;7.88;;;;;;;13.52;100.00;101109.13;5059787;28;20477;-51
2023/01/14 03:47:03;;;;;;;38.60;8.55;;;;;;;13.54;100.00;101106.25;5058050;28;20034;-54
2023/01/14 03:49:28;;;;;;;33.00;8.60;;;;;;;14.20;100.00;101099.84;5062134;28;20037;-50
2023/01/14 03:52:12;;;;;;;39.30;6.70;;;;;;;13.75;100.00;101105.16;5064551;28;20071;-50
2023/01/14 03:54:57;;;;;;;39.53;7.38;;;;;;;13.58;100.00;101099.41;5057850;28;20468;-51
2023/01/14 03:57:46;;;;;;;40.15;6.13;;;;;;;13.88;100.00;101099.78;5062393;28;20044;-52
2023/01/14 04:00:21;;;;;;;39.08;6.60;;;;;;;14.23;100.00;101100.47;5057047;28;20038;-53
2023/01/14 04:02:48;;;;;;;46.53;5.97;;;;;;;13.93;100.00;101098.31;5059646;28;20033;-52
2023/01/14 04:05:15;;;;;;;42.42;6.63;;;;;;;14.13;100.00;101085.63;5059313;28;20053;-52
2023/01/14 04:07:41;;;;;;;28.20;4.68;;;;;;;14.15;100.00;101082.69;5064504;28;20037;-54
2023/01/14 04:10:07;;;;;;;45.17;5.87;;;;;;;14.15;100.00;101086.22;5060836;28;20036;-52
2023/01/14 04:12:32;;;;;;;32.45;5.18;;;;;;;14.04;100.00;101071.59;5065889;28;20067;-51
2023/01/14 04:17:42;;;;;;;29.90;5.70;;;;;;;14.10;100.00;101064.53;5060002;28;20302;-54
2023/01/14 04:20:08;;;;;;;29.27;5.13;;;;;;;14.02;100.00;101059.38;5057579;28;20045;-53
2023/01/14 04:22:35;;;;;;;26.65;4.72;;;;;;;13.88;100.00;101048.69;5064383;28;20184;-54
2023/01/14 04:25:00;;;;;;;33.97;5.80;;;;;;;14.43;100.00;101043.88;5064290;28;20045;-49
2023/01/14 04:27:26;;;;;;;42.13;7.43;;;;;;;14.16;100.00;101052.91;5054011;28;20029;-51
2023/01/14 04:29:51;;;;;;;33.20;5.27;;;;;;;14.07;100.00;101042.59;5058825;28;20058;-53
2023/01/14 04:32:17;;;;;;;33.43;5.33;;;;;;;14.19;100.00;101033.66;5061197;28;20060;-51
2023/01/14 04:34:42;;;;;;;39.37;6.43;;;;;;;14.59;100.00;101034.47;5064860;28;20297;-53
2023/01/14 04:37:07;;;;;;;31.93;5.43;;;;;;;14.29;100.00;101029.66;5062426;28;20096;-53
2023/01/14 04:39:34;;;;;;;33.57;5.87;;;;;;;14.14;100.00;101025.41;5064139;28;20021;-50
2023/01/14 04:44:44;;;;;;;32.42;6.03;;;;;;;14.07;100.00;101021.94;5061831;28;19917;-51
2023/01/14 04:47:10;;;;;;;34.17;5.20;;;;;;;14.25;100.00;101012.31;5064801;28;20136;-54
2023/01/14 04:49:36;;;;;;;33.47;5.50;;;;;;;14.29;100.00;101011.66;5063989;28;20039;-52
2023/01/14 04:52:01;;;;;;;24.27;4.17;;;;;;;14.34;100.00;101013.72;5063222;28;20033;-52
2023/01/14 04:54:27;;;;;;;19.75;4.43;;;;;;;14.84;100.00;101009.47;5059448;28;20033;-55
2023/01/14 04:56:52;;;;;;;26.90;4.47;;;;;;;14.26;100.00;101016.66;5059313;28;20068;-51
2023/01/14 04:59:18;;;;;;;32.70;4.90;;;;;;;14.35;100.00;101007.31;5063358;28;20287;-53
2023/01/14 05:01:44;;;;;;;32.43;4.43;;;;;;;14.86;100.00;101004.69;5067170;28;20037;-50
2023/01/14 05:04:09;;;;;;;35.73;5.27;;;;;;;14.47;100.00;100992.09;5064068;28;20297;-53
2023/01/14 05:06:34;;;;;;;31.10;4.77;;;;;;;14.34;100.00;100986.81;5064870;28;20036;-53
2023/01/14 05:09:00;;;;;;;23.10;4.40;;;;;;;14.43;100.00;100977.44;5063875;28;20037;-54
2023/01/14 05:11:26;;;;;;;45.40;6.13;;;;;;;14.48;100.00;100968.72;5064171;28;20057;-54
2023/01/14 05:13:51;;;;;;;41.17;6.03;;;;;;;14.62;100.00;100969.44;5061407;28;20049;-52
2023/01/14 05:16:17;;;;;;;20.10;3.40;;;;;;;14.56;100.00;100956.88;5060333;28;20258;-51
2023/01/14 05:18:43;;;;;;;54.42;5.82;;;;;;;14.28;100.00;100955.38;5062957;28;20060;-54
2023/01/14 05:21:09;;;;;;;31.60;5.03;;;;;;;14.31;100.00;100952.28;5061492;28;20041;-51
2023/01/14 05:23:34;;;;;;;26.38;4.05;;;;;;;14.34;100.00;100955.34;5058616;28;20033;-51
2023/01/14 05:26:00;;;;;;;32.67;6.20;;;;;;;14.39;100.00;100951.16;5062365;28;20120;-54
2023/01/14 05:28:25;;;;;;;30.40;4.60;;;;;;;14.55;100.00;100944.44;5061768;28;20025;-50
2023/01/14 05:30:51;;;;;;;26.75;4.63;;;;;;;14.61;100.00;100940.88;5061337;28;20029;-52
2023/01/14 05:33:17;;;;;;;34.05;4.63;;;;;;;14.33;100.00;100934.06;5063892;28;20054;-51
2023/01/14 05:35:44;;;;;;;19.83;4.40;;;;;;;14.23;100.00;100921.09;5063363;28;20033;-53
2023/01/14 05:38:10;;;;;;;27.43;4.70;;;;;;;14.65;100.00;100912.47;5063922;28;20120;-51
2023/01/14 05:40:36;;;;;;;35.88;6.93;;;;;;;14.32;100.00;100913.59;5065641;28;20032;-50
2023/01/14 05:45:49;;;;;;;29.33;4.25;;;;;;;14.34;100.00;100890.78;5061913;28;20042;-55
2023/01/14 05:48:20;;;;;;;29.85;4.38;;;;;;;14.28;100.00;100885.44;5057402;28;20071;-51
2023/01/14 05:50:50;;;;;;;27.23;4.18;;;;;;;14.33;100.00;100874.88;5059494;28;20040;-53
2023/01/14 05:53:16;;;;;;;18.92;3.50;;;;;;;14.02;100.00;100881.91;5061333;28;20026;-51
2023/01/14 05:55:42;;;;;;;31.98;4.60;;;;;;;14.09;100.00;100877.34;5061290;28;20101;-53
2023/01/14 05:58:07;;;;;;;29.37;4.23;;;;;;;14.15;100.00;100868.38;5061772;28;20037;-51
2023/01/14 06:06:22;;;;;;;20.00;3.95;;;;;;;13.87;100.00;100842.75;5058556;28;20045;-49
2023/01/14 06:08:54;;;;;;;31.08;4.03;;;;;;;13.94;100.00;100839.97;5057658;28;20029;-49
2023/01/14 06:11:21;;;;;;;22.63;3.92;;;;;;;14.21;100.00;100831.72;5061200;28;20033;-50
2023/01/14 06:13:48;;;;;;;26.58;4.05;;;;;;;14.86;100.00;100811.63;5056499;28;20104;-50
2023/01/14 06:16:14;;;;;;;25.30;4.20;;;;;;;14.72;100.00;100810.97;5061126;28;20030;-51
2023/01/14 06:18:43;;;;;;;26.42;4.00;;;;;;;14.27;100.00;100803.09;5062260;28;20059;-52
2023/01/14 06:21:12;;;;;;;24.63;5.20;;;;;;;14.49;100.00;100800.84;5061313;28;20101;-54
2023/01/14 06:23:38;;;;;;;23.67;4.20;;;;;;;14.39;100.00;100795.97;5058408;28;20041;-53
2023/01/14 06:26:07;;;;;;;28.92;4.97;;;;;;;14.54;100.00;100792.91;5058091;28;20044;-51
2023/01/14 06:28:32;;;;;;;34.33;5.05;;;;;;;14.63;100.00;100796.94;5061006;28;20033;-49
2023/01/14 06:30:57;;;;;;;28.53;3.90;;;;;;;14.69;100.00;100803.31;5062663;28;20051;-52
2023/01/14 06:33:23;;;;;;;33.60;3.23;;;;;;;14.68;100.00;100777.44;5063490;28;20037;-50
2023/01/14 06:35:49;;;;;;;31.23;4.23;;;;;;;14.59;100.00;100795.75;5059974;28;20040;-49
2023/01/14 06:38:15;;;;;;;24.88;4.47;;;;;;;14.67;100.00;100778.50;5061495;28;20266;-53
2023/01/14 06:40:44;;;;;;;38.63;6.20;;;;;;;14.26;100.00;100779.94;5060861;28;20064;-52
2023/01/14 06:43:10;;;;;;;18.27;3.83;;;;;;;14.55;100.00;100774.91;5064730;28;20029;-52
2023/01/14 06:45:36;;;;;;;26.45;3.60;;;;;;;14.03;100.00;100779.53;5062141;28;20034;-53
2023/01/14 06:48:02;;;;;;;30.67;4.65;;;;;;;14.38;100.00;100748.59;5057431;28;20040;-52
2023/01/14 06:50:27;;;;;;;32.83;4.53;;;;;;;14.43;100.00;100758.69;5063665;28;20026;-48
2023/01/14 06:52:53;;;;;;;25.10;4.70;;;;;;;14.29;100.00;100737.28;5060567;28;20334;-53
2023/01/14 06:55:20;;;;;;;22.08;3.55;;;;;;;14.15;100.00;100728.53;5065739;28;20045;-49
2023/01/14 06:57:46;;;;;;;28.88;3.72;;;;;;;14.19;100.00;100721.66;5062260;28;20041;-53
2023/01/14 07:00:13;;;;;;;32.05;4.68;;;;;;;14.71;100.00;100717.81;5066262;28;20083;-49
2023/01/14 07:02:39;;;;;;;25.55;4.47;;;;;;;14.28;100.00;100714.13;5062499;28;20040;-54
2023/01/14 07:05:05;;;;;;;32.90;4.90;;;;;;;14.12;100.00;100693.19;5069720;28;20033;-53
2023/01/14 07:07:31;;;;;;;26.65;5.22;;;;;;;14.38;100.00;100692.09;5068168;28;20037;-54
2023/01/14 07:09:56;;;;;;;21.57;3.17;;;;;;;14.15;100.00;100688.19;5068802;28;20037;-51
2023/01/14 07:12:22;;;;;;;24.70;4.37;;;;;;;14.24;100.00;100693.28;5066153;28;20270;-54
2023/01/14 07:14:47;;;;;;;28.57;4.20;;;;;;;13.69;100.00;100678.72;5064172;28;20033;-53
2023/01/14 07:17:13;;;;;;;27.33;3.73;;;;;;;14.10;100.00;100671.09;5065902;28;20040;-55
2023/01/14 07:19:38;;;;;;;19.23;3.45;;;;;;;13.77;100.00;100678.41;5065915;28;20065;-54
2023/01/14 07:22:04;;;;;;;25.93;4.23;;;;;;;13.82;100.00;100653.59;5069806;28;20052;-53
2023/01/14 07:24:29;;;;;;;18.38;3.13;;;;;;;13.69;100.00;100657.22;5064522;28;20033;-55
2023/01/14 07:26:55;;;;;;;32.53;4.77;;;;;;;13.95;100.00;100640.00;5068042;28;20037;-55
2023/01/14 07:29:20;;;;;;;20.40;4.65;;;;;;;13.73;100.00;100640.44;5067709;28;20055;-53
2023/01/14 07:31:46;;;;;;;29.67;4.80;;;;;;;13.57;100.00;100628.38;5060933;28;20061;-53
2023/01/14 07:34:12;;;;;;;27.93;3.20;;;;;;;14.06;100.00;100611.53;5065118;28;20294;-56
2023/01/14 07:36:37;;;;;;;22.88;3.00;;;;;;;13.60;100.00;100616.38;5064692;28;20074;-54
2023/01/14 07:39:03;;;;;;;21.48;3.30;;;;;;;14.11;100.00;100602.81;5066471;28;20047;-58
2023/01/14 07:41:29;;;;;;;18.50;4.80;;;;;;;13.85;100.00;100604.75;5066809;28;20040;-57
2023/01/14 07:43:54;;;;;;;27.97;5.23;;;;;;;13.76;100.00;100585.41;5067171;28;20051;-58
2023/01/14 07:46:20;;;;;;;28.63;3.93;;;;;;;13.65;100.00;100584.28;5055689;28;20042;-58
2023/01/14 07:48:45;;;;;;;26.10;4.80;;;;;;;13.52;100.00;100558.34;5063335;28;20337;-59
2023/01/14 07:51:12;;;;;;;29.47;4.53;;;;;;;13.66;100.00;100560.94;5066707;28;20028;-57
2023/01/14 07:53:39;;;;;;;33.60;7.18;;;;;;;13.44;100.00;100555.97;5064951;28;20052;-53
2023/01/14 07:56:06;;;;;;;28.75;5.15;;;;;;;13.44;100.00;100539.84;5058319;28;20033;-55
2023/01/14 07:58:33;;;;;;;28.75;5.93;;;;;;;13.72;100.00;100535.84;5062334;28;20040;-56
2023/01/14 08:01:04;;;;;;;;;;;;;;;13.77;100.00;100530.59;5068331;28;20049;-58
2023/01/14 08:03:29;;;;;;;17.92;3.83;;;;;;;14.10;100.00;100555.47;5063367;28;19913;-61
2023/01/14 08:05:55;;;;;;;22.08;4.20;;;;;;;13.87;100.00;100501.34;5067027;28;20067;-58
2023/01/14 08:08:21;;;;;;;25.27;4.37;;;;;;;14.34;100.00;100497.22;5068844;28;20105;-59
2023/01/14 08:10:46;;;;;;;18.48;3.95;;;;;;;13.57;100.00;100504.78;5065812;28;20033;-57
2023/01/14 08:13:13;;;;;;;13.43;3.60;;;;;;;13.91;100.00;100486.41;5061916;28;20043;-57
2023/01/14 08:15:39;;;;;;;18.65;3.83;;;;;;;13.54;100.00;100505.22;5062899;28;20136;-61
2023/01/14 08:18:04;;;;;;;30.17;4.17;;;;;;;13.98;100.00;100472.06;5064721;28;20052;-57
2023/01/14 08:20:31;;;;;;;13.60;3.85;;;;;;;14.20;100.00;100485.84;5057080;28;20041;-59
2023/01/14 08:22:58;;;;;;;22.13;4.20;;;;;;;14.38;100.00;100459.91;5061810;28;20032;-57
2023/01/14 08:25:24;;;;;;;17.33;4.63;;;;;;;14.04;100.00;100436.19;5059269;28;20056;-56
2023/01/14 08:27:50;;;;;;;;;;;;;;;14.44;100.00;100437.50;5063518;28;20048;-56
2023/01/14 08:30:16;;;;;;;14.57;3.93;;;;;;;13.47;100.00;100431.97;5057377;28;19921;-58
2023/01/14 08:32:41;;;;;;;16.60;4.90;;;;;;;13.61;100.00;100420.03;5064000;28;20042;-57
2023/01/14 08:35:07;;;;;;;15.10;4.88;;;;;;;14.36;100.00;100418.97;5060310;28;20025;-58
2023/01/14 08:37:33;;;;;;;17.67;4.90;;;;;;;13.62;100.00;100455.75;5056325;28;20064;-59
2023/01/14 08:39:58;;;;;;;10.63;4.67;;;;;;;14.17;100.00;100400.22;5062083;28;20290;-54
2023/01/14 08:42:24;;;;;;;23.20;6.77;;;;;;;14.31;100.00;100398.16;5061838;28;20033;-56
2023/01/14 08:44:49;;;;;;;23.93;5.80;;;;;;;14.38;100.00;100377.34;5058144;28;20346;-54
2023/01/14 08:47:15;;;;;;;18.83;6.20;;;;;;;14.08;100.00;100417.72;5064792;28;20033;-55
2023/01/14 08:49:40;;;;;;;13.77;4.93;;;;;;;13.69;100.00;100364.31;5061782;28;20271;-55
2023/01/14 08:52:06;;;;;;;19.33;5.80;;;;;;;14.41;100.00;100355.34;5061005;28;20052;-53
2023/01/14 08:54:33;;;;;;;24.75;5.82;;;;;;;14.39;100.00;100344.00;5061865;28;20041;-58
2023/01/14 08:56:58;;;;;;;16.50;6.35;;;;;;;14.12;100.00;100333.69;5060311;28;20037;-58
2023/01/14 08:59:24;;;;;;;11.88;5.32;;;;;;;14.26;100.00;100341.53;5061706;28;20029;-57
2023/01/14 09:01:50;;;;;;;19.93;5.77;;;;;;;14.24;100.00;100320.28;5061459;28;20037;-57
2023/01/14 09:04:16;;;;;;;14.30;6.05;;;;;;;14.15;100.00;100327.84;5060053;28;20045;-57
2023/01/14 09:17:43;;;;;;;14.55;4.63;;;;;;;14.11;100.00;100280.16;5062624;28;19913;-55
2023/01/14 09:20:17;;;;;;;16.63;5.53;;;;;;;14.24;100.00;100281.78;5062187;28;20036;-58
2023/01/14 09:22:46;;;;;;;13.02;5.35;;;;;;;14.61;100.00;100278.84;5058187;28;20045;-57
2023/01/14 09:25:11;;;;;;;14.65;4.45;;;;;;;14.54;100.00;100262.03;5060403;28;20033;-58
2023/01/14 09:27:37;;;;;;;12.73;5.10;;;;;;;14.31;100.00;100279.81;5060974;28;20052;-55
2023/01/14 09:30:03;;;;;;;22.33;5.17;;;;;;;14.45;100.00;100261.56;5059441;28;20032;-59
2023/01/14 09:32:37;;;;;;;9.70;3.80;;;;;;;14.37;100.00;100257.34;5061699;28;20073;-59
2023/01/14 09:35:02;;;;;;;21.25;4.50;;;;;;;14.15;100.00;100252.56;5059158;28;20041;-57
2023/01/14 09:37:28;;;;;;;20.10;4.47;;;;;;;14.30;100.00;100227.88;5063019;28;20036;-58
2023/01/14 09:39:54;;;;;;;18.67;4.37;;;;;;;14.17;100.00;100223.56;5060694;28;20065;-57
2023/01/14 09:42:35;;;;;;;13.13;3.90;;;;;;;14.01;100.00;100218.88;5064570;28;20112;-58
2023/01/14 09:45:15;;;;;;;19.88;3.88;;;;;;;14.32;100.00;100209.63;5061320;28;20050;-59
2023/01/14 09:47:42;;;;;;;18.85;3.92;;;;;;;14.85;100.00;100198.09;5058668;28;20040;-60
2023/01/14 09:50:14;;;;;;;19.50;3.65;;;;;;;14.81;100.00;100213.88;5063766;28;20101;-58
2023/01/14 09:53:04;;;;;;;16.05;3.47;;;;;;;14.46;100.00;100199.44;5054463;28;20037;-57
2023/01/14 09:55:43;;;;;;;15.70;3.47;;;;;;;14.35;100.00;100192.22;5063954;28;20028;-59
2023/01/14 09:58:18;;;;;;;12.05;4.13;;;;;;;14.34;100.00;100185.22;5059861;28;20059;-60
2023/01/14 10:01:14;;;;;;;13.85;3.40;;;;;;;14.73;100.00;100161.25;5061513;28;20029;-56
2023/01/14 10:04:13;;;;;;;9.75;3.38;;;;;;;14.41;100.00;100155.47;5060128;28;20044;-59
2023/01/14 10:06:41;;;;;;;12.30;3.65;;;;;;;14.63;100.00;100136.81;5062654;28;20048;-59
2023/01/14 10:09:17;;;;;;;8.30;2.65;;;;;;;15.00;100.00;100127.56;5060090;28;20043;-57
2023/01/14 10:11:44;;;;;;;13.10;3.30;;;;;;;14.89;100.00;100132.75;5054847;28;20036;-59
2023/01/14 10:14:26;;;;;;;14.60;3.53;;;;;;;15.17;100.00;100122.19;5045232;28;20090;-58
2023/01/14 10:16:57;;;;;;;14.65;3.40;;;;;;;15.30;100.00;100121.88;5049657;28;20041;-56
2023/01/14 10:19:36;;;;;;;15.13;3.22;;;;;;;14.83;100.00;100117.56;5052375;28;20029;-56
2023/01/14 10:22:31;;;;;;;12.23;3.53;;;;;;;15.11;100.00;100109.69;5047344;28;20057;-59
2023/01/14 10:24:56;;;;;;;19.27;4.17;;;;;;;14.94;100.00;100088.16;5053821;28;20271;-59
2023/01/14 10:27:26;;;;;;;12.20;2.97;;;;;;;15.20;100.00;100105.53;5057793;28;20290;-58
2023/01/14 10:29:56;;;;;;;15.77;3.57;;;;;;;15.07;100.00;100074.34;5062475;28;20037;-57
2023/01/14 10:32:22;;;;;;;20.77;3.67;;;;;;;15.00;100.00;100074.53;5058736;28;20313;-58
2023/01/14 10:34:55;;;;;;;11.20;2.97;;;;;;;14.75;100.00;100062.25;5060386;28;20346;-54
2023/01/14 10:37:21;;;;;;;17.77;3.55;;;;;;;14.85;100.00;100058.91;5061281;28;20650;-58
2023/01/14 10:39:52;;;;;;;8.37;2.30;;;;;;;15.07;100.00;100033.97;5063132;28;20033;-58
2023/01/14 10:42:23;;;;;;;14.80;4.10;;;;;;;14.97;100.00;100026.53;5058484;28;20297;-57
2023/01/14 10:44:49;;;;;;;13.60;2.93;;;;;;;14.69;100.00;100043.53;5059917;28;20358;-57
2023/01/14 10:47:16;;;;;;;19.02;2.80;;;;;;;15.17;100.00;100009.91;5063855;28;20266;-56
2023/01/14 10:49:54;;;;;;;12.97;2.90;;;;;;;15.47;100.00;100007.91;5063083;28;20040;-57
2023/01/14 10:52:20;;;;;;;12.93;3.07;;;;;;;15.28;100.00;100007.34;5064629;28;20274;-58
2023/01/14 10:55:11;;;;;;;13.60;3.20;;;;;;;15.43;100.00;100025.59;5066144;28;20359;-58
2023/01/14 10:57:44;;;;;;;11.20;2.53;;;;;;;15.29;100.00;99993.63;5062278;28;20100;-58
2023/01/14 11:00:39;;;;;;;8.73;2.47;;;;;;;14.98;100.00;99970.81;5062044;28;20293;-58
2023/01/14 11:03:08;;;;;;;15.33;3.07;;;;;;;14.91;100.00;99952.16;5057307;28;20271;-57
2023/01/14 11:05:36;;;;;;;11.97;2.63;;;;;;;15.40;100.00;99974.91;5060977;28;20703;-58
2023/01/14 11:08:13;;;;;;;0.47;0.47;;;;;;;15.06;100.00;99932.69;5062170;28;20298;-58
2023/01/14 11:10:41;;;;;;;1.07;1.07;;;;;;;15.30;100.00;99946.78;5063101;28;20266;-56
2023/01/14 11:13:28;;;;;;;0.13;0.13;;;;;;;15.45;100.00;99934.56;5059458;28;20334;-59
2023/01/14 11:15:54;;;;;;;0.20;0.20;;;;;;;15.45;100.00;99902.22;5063714;28;20279;-59
2023/01/14 11:18:24;;;;;;;0.80;0.73;;;;;;;15.27;100.00;99941.06;5065254;28;20267;-59
2023/01/14 11:20:59;;;;;;;0.10;0.10;;;;;;;15.45;100.00;99886.88;5061067;28;20067;-60
2023/01/14 11:23:37;;;;;;;0.37;0.37;;;;;;;15.52;100.00;99908.25;5062764;28;20282;-59
2023/01/14 11:26:09;;;;;;;8.33;1.70;;;;;;;15.12;100.00;99914.75;5060426;28;20329;-57
2023/01/14 11:28:44;;;;;;;8.37;2.27;;;;;;;15.54;100.00;99884.56;5063863;28;20304;-56
2023/01/14 11:31:09;;;;;;;7.07;2.47;;;;;;;15.46;100.00;99883.13;5063453;28;20298;-58
2023/01/14 11:33:48;;;;;;;11.00;2.20;;;;;;;15.30;100.00;99890.22;5063267;28;20305;-58
2023/01/14 11:36:20;;;;;;;5.17;1.97;;;;;;;15.55;100.00;99875.41;5058331;28;20053;-59
2023/01/14 11:38:46;;;;;;;5.07;1.77;;;;;;;15.65;100.00;99852.34;5060746;28;20274;-58
2023/01/14 11:41:29;;;;;;;10.27;2.10;;;;;;;15.53;100.00;99849.78;5064902;28;20273;-58
2023/01/14 11:44:18;;;;;;;11.83;2.60;;;;;;;15.27;100.00;99861.09;5063773;28;20047;-57
2023/01/14 11:46:45;;;;;;;8.20;2.03;;;;;;;15.38;100.00;99858.50;5060686;28;20262;-58
2023/01/14 11:49:18;;;;;;;9.02;1.80;;;;;;;15.08;100.00;99849.78;5062011;28;20271;-59
2023/01/14 11:52:04;;;;;;;6.07;1.50;;;;;;;15.32;100.00;99811.84;5068576;28;20037;-60
2023/01/14 11:54:36;;;;;;;23.93;2.73;;;;;;;15.30;100.00;99832.81;5057079;28;20301;-56